Time;durP1;ratioP1;P1;durP2;ratioP2;P2;SDS_P1;SDS_P2;PMS_P1;PMS_P2;Temp;Humidity;BMP_temperature;BMP_pressure;BME280_temperature;BME280_humidity;BME280_pressure;Samples;Min_cycle;Max_cycle;Signal;HPM_P1;HPM_P2
2022/07/10 00:00:11;;;;;;;2.30;2.10;;;;;;;;;;4993307;28;20060;-52
2022/07/10 00:02:37;;;;;;;2.58;2.08;;;;;;;;;;4993041;28;20113;-49
2022/07/10 00:05:04;;;;;;;3.25;1.88;;;;;;;;;;4993201;28;20034;-46
2022/07/10 00:07:30;;;;;;;7.47;2.30;;;;;;;;;;4993232;28;20034;-48
2022/07/10 00:09:56;;;;;;;3.05;1.92;;;;;;;;;;4993404;28;20552;-49
2022/07/10 00:12:21;;;;;;;3.35;2.05;;;;;;;;;;4993198;28;20084;-48
2022/07/10 00:14:47;;;;;;;2.97;1.90;;;;;;;;;;4993180;28;20521;-48
2022/07/10 00:17:12;;;;;;;3.20;2.00;;;;;;;;;;4992767;28;20501;-46
2022/07/10 00:19:38;;;;;;;3.88;2.10;;;;;;;;;;4993102;28;20485;-52
2022/07/10 00:22:04;;;;;;;2.47;1.90;;;;;;;;;;4992956;28;20045;-48
2022/07/10 00:24:29;;;;;;;4.65;2.00;;;;;;;;;;4992871;28;20494;-49
2022/07/10 00:26:55;;;;;;;4.15;2.13;;;;;;;;;;4993048;28;20038;-48
2022/07/10 00:29:20;;;;;;;2.78;2.00;;;;;;;;;;4992544;28;20026;-44
2022/07/10 00:31:46;;;;;;;4.10;2.22;;;;;;;;;;4992873;28;20053;-46
2022/07/10 00:34:12;;;;;;;2.42;1.92;;;;;;;;;;4992788;28;20386;-48
2022/07/10 00:36:38;;;;;;;4.10;2.20;;;;;;;;;;4992492;28;20401;-50
2022/07/10 00:39:04;;;;;;;2.28;2.08;;;;;;;;;;4992507;28;20037;-46
2022/07/10 00:41:29;;;;;;;2.65;2.25;;;;;;;;;;4992586;28;20037;-50
2022/07/10 00:43:59;;;;;;;6.43;2.65;;;;;;;;;;4992322;28;20446;-48
2022/07/10 00:46:26;;;;;;;5.47;2.47;;;;;;;;;;4992576;28;20026;-49
2022/07/10 00:48:52;;;;;;;3.58;2.78;;;;;;;;;;4992341;28;20048;-48
2022/07/10 00:51:20;;;;;;;4.75;2.58;;;;;;;;;;4992031;28;20036;-46
2022/07/10 00:53:47;;;;;;;5.85;2.38;;;;;;;;;;4992136;28;20126;-50
2022/07/10 00:56:16;;;;;;;6.75;2.80;;;;;;;;;;4992479;28;20034;-48
2022/07/10 00:58:43;;;;;;;4.63;2.70;;;;;;;;;;4992360;28;20030;-50
2022/07/10 01:01:08;;;;;;;3.88;2.67;;;;;;;;;;4992404;28;20023;-47
2022/07/10 01:03:34;;;;;;;2.70;2.50;;;;;;;;;;4992420;28;20072;-49
2022/07/10 01:05:59;;;;;;;8.65;2.83;;;;;;;;;;4991994;28;20057;-46
2022/07/10 01:08:26;;;;;;;2.95;2.13;;;;;;;;;;4992107;28;20037;-49
2022/07/10 01:10:52;;;;;;;5.35;1.80;;;;;;;;;;4991900;28;20085;-46
2022/07/10 01:13:18;;;;;;;2.40;1.77;;;;;;;;;;4991829;28;20034;-49
2022/07/10 01:15:44;;;;;;;2.30;1.90;;;;;;;;;;4991952;28;20026;-48
2022/07/10 01:18:10;;;;;;;2.50;1.88;;;;;;;;;;4992120;28;20390;-49
2022/07/10 01:20:35;;;;;;;3.90;1.83;;;;;;;;;;4991744;28;20081;-49
2022/07/10 01:23:01;;;;;;;1.50;1.40;;;;;;;;;;4991810;28;20076;-52
2022/07/10 01:25:27;;;;;;;2.42;1.55;;;;;;;;;;4991805;28;20382;-52
2022/07/10 01:27:53;;;;;;;4.10;1.67;;;;;;;;;;4991391;28;20117;-48
2022/07/10 01:30:20;;;;;;;1.70;1.42;;;;;;;;;;4991981;28;20161;-50
2022/07/10 01:32:47;;;;;;;2.85;1.30;;;;;;;;;;4991475;28;20026;-50
2022/07/10 01:35:13;;;;;;;2.00;1.35;;;;;;;;;;4991835;28;20041;-51
2022/07/10 01:37:39;;;;;;;2.10;1.50;;;;;;;;;;4991862;28;20038;-50
2022/07/10 01:40:06;;;;;;;1.60;1.50;;;;;;;;;;4991716;28;20022;-52
2022/07/10 01:42:32;;;;;;;2.17;1.60;;;;;;;;;;4991278;28;20029;-50
2022/07/10 01:44:57;;;;;;;2.22;1.70;;;;;;;;;;4991418;28;20405;-48
2022/07/10 01:47:27;;;;;;;2.10;1.88;;;;;;;;;;4991792;28;20026;-45
2022/07/10 01:49:53;;;;;;;2.92;1.90;;;;;;;;;;4991753;28;20433;-46
2022/07/10 01:52:19;;;;;;;3.17;1.88;;;;;;;;;;4991339;28;20058;-47
2022/07/10 01:54:45;;;;;;;7.28;3.08;;;;;;;;;;4991334;28;20030;-45
2022/07/10 01:57:11;;;;;;;3.47;2.10;;;;;;;;;;4991342;28;20475;-50
2022/07/10 01:59:36;;;;;;;3.75;2.15;;;;;;;;;;4991615;28;20113;-50
2022/07/10 02:02:02;;;;;;;3.10;2.03;;;;;;;;;;4991529;28;20030;-51
2022/07/10 02:04:42;;;;;;;4.47;1.98;;;;;;;;;;4991260;28;20041;-52
2022/07/10 02:07:14;;;;;;;2.88;1.80;;;;;;;;;;4991264;28;20505;-46
2022/07/10 02:09:40;;;;;;;3.30;1.85;;;;;;;;;;4991184;28;20065;-52
2022/07/10 02:12:07;;;;;;;3.42;1.70;;;;;;;;;;4991407;28;20062;-45
2022/07/10 02:14:33;;;;;;;4.63;1.45;;;;;;;;;;4991323;28;20034;-48
2022/07/10 02:16:58;;;;;;;3.40;1.33;;;;;;;;;;4991081;28;20033;-50
2022/07/10 02:19:24;;;;;;;2.95;2.65;;;;;;;;;;4991486;28;20054;-51
2022/07/10 02:21:50;;;;;;;2.38;1.73;;;;;;;;;;4991403;28;20058;-50
2022/07/10 02:24:16;;;;;;;1.60;1.48;;;;;;;;;;4991407;28;20045;-47
2022/07/10 02:26:42;;;;;;;2.15;1.35;;;;;;;;;;4991357;28;20030;-49
2022/07/10 02:29:07;;;;;;;2.35;1.20;;;;;;;;;;4990998;28;20105;-51
2022/07/10 02:31:34;;;;;;;1.20;1.10;;;;;;;;;;4991026;28;20030;-48
2022/07/10 02:34:02;;;;;;;1.40;1.30;;;;;;;;;;4990967;28;20038;-49
2022/07/10 02:36:27;;;;;;;1.23;1.13;;;;;;;;;;4991295;28;20053;-50
2022/07/10 02:38:53;;;;;;;2.38;1.10;;;;;;;;;;4991140;28;20490;-47
2022/07/10 02:41:18;;;;;;;0.95;0.95;;;;;;;;;;4994776;28;20471;-44
2022/07/10 02:43:44;;;;;;;1.48;1.17;;;;;;;;;;4994767;28;20486;-44
2022/07/10 02:46:09;;;;;;;1.85;1.10;;;;;;;;;;4994667;28;20030;-48
2022/07/10 02:48:35;;;;;;;1.25;1.15;;;;;;;;;;4994598;28;20037;-48
2022/07/10 02:51:00;;;;;;;1.10;1.00;;;;;;;;;;4994509;28;20038;-51
2022/07/10 02:53:26;;;;;;;1.00;1.00;;;;;;;;;;4994373;28;20050;-52
2022/07/10 02:55:51;;;;;;;4.22;1.00;;;;;;;;;;4994706;28;20065;-53
2022/07/10 02:58:17;;;;;;;1.30;1.20;;;;;;;;;;4994690;28;20053;-49
2022/07/10 03:00:43;;;;;;;1.60;0.90;;;;;;;;;;4994665;28;20393;-49
2022/07/10 03:03:09;;;;;;;1.02;0.98;;;;;;;;;;4994628;28;20382;-43
2022/07/10 03:05:34;;;;;;;1.00;1.00;;;;;;;;;;4976681;28;20034;-50
2022/07/10 03:08:00;;;;;;;2.53;0.98;;;;;;;;;;4994606;28;20061;-49
2022/07/10 03:10:26;;;;;;;5.57;1.20;;;;;;;;;;4994197;28;20058;-51
2022/07/10 03:12:51;;;;;;;1.13;1.02;;;;;;;;;;4994039;28;20201;-50
2022/07/10 03:15:17;;;;;;;1.08;1.00;;;;;;;;;;4994035;28;20026;-51
2022/07/10 03:17:42;;;;;;;1.15;1.02;;;;;;;;;;4994328;28;20034;-47
2022/07/10 03:20:08;;;;;;;1.23;1.05;;;;;;;;;;4994064;28;20470;-47
2022/07/10 03:22:34;;;;;;;5.63;1.05;;;;;;;;;;4994177;28;20041;-48
2022/07/10 03:25:00;;;;;;;0.93;0.93;;;;;;;;;;4994283;28;20030;-52
2022/07/10 03:27:26;;;;;;;1.00;1.00;;;;;;;;;;4994120;28;20462;-46
2022/07/10 03:29:51;;;;;;;1.10;1.00;;;;;;;;;;4993686;28;20034;-44
2022/07/10 03:32:17;;;;;;;0.95;0.90;;;;;;;;;;4993746;28;20041;-47
2022/07/10 03:34:42;;;;;;;1.00;1.00;;;;;;;;;;4994053;28;20121;-48
2022/07/10 03:37:08;;;;;;;1.45;0.90;;;;;;;;;;4993692;28;20026;-48
2022/07/10 03:39:33;;;;;;;0.85;0.85;;;;;;;;;;4993663;28;20034;-50
2022/07/10 03:41:59;;;;;;;0.90;0.90;;;;;;;;;;4993608;28;20037;-47
2022/07/10 03:44:24;;;;;;;3.15;0.95;;;;;;;;;;4993591;28;20041;-44
2022/07/10 03:46:50;;;;;;;1.20;1.00;;;;;;;;;;4993640;28;20026;-46
2022/07/10 03:49:15;;;;;;;0.90;0.90;;;;;;;;;;4993350;28;20486;-49
2022/07/10 03:51:41;;;;;;;0.80;0.80;;;;;;;;;;4992841;28;20058;-51
2022/07/10 03:54:07;;;;;;;0.90;0.90;;;;;;;;;;4993695;28;20060;-49
2022/07/10 03:59:17;;;;;;;0.90;0.90;;;;;;;;;;4993613;28;20064;-50
2022/07/10 04:01:42;;;;;;;1.33;1.10;;;;;;;;;;4993315;28;20482;-49
2022/07/10 04:04:07;;;;;;;1.40;1.30;;;;;;;;;;4993169;28;20096;-44
2022/07/10 04:06:33;;;;;;;1.90;1.30;;;;;;;;;;4993099;28;20041;-48
2022/07/10 04:08:58;;;;;;;1.42;1.30;;;;;;;;;;4993118;28;20034;-42
2022/07/10 04:11:24;;;;;;;2.60;1.63;;;;;;;;;;4992896;28;20041;-47
2022/07/10 04:13:49;;;;;;;1.90;1.70;;;;;;;;;;4993337;28;20030;-44
2022/07/10 04:16:15;;;;;;;2.53;1.80;;;;;;;;;;4993031;28;20045;-47
2022/07/10 04:18:40;;;;;;;3.10;2.22;;;;;;;;;;4993429;28;20482;-47
2022/07/10 04:21:06;;;;;;;2.22;1.90;;;;;;;;;;4992793;28;20487;-47
2022/07/10 04:23:34;;;;;;;1.90;1.60;;;;;;;;;;4993147;28;20113;-47
2022/07/10 04:26:01;;;;;;;1.88;1.30;;;;;;;;;;4992712;28;20165;-52
2022/07/10 04:28:26;;;;;;;1.27;1.17;;;;;;;;;;4992752;28;20085;-44
2022/07/10 04:30:52;;;;;;;1.17;1.08;;;;;;;;;;4992835;28;20049;-49
2022/07/10 04:33:17;;;;;;;1.75;1.23;;;;;;;;;;4992825;28;20031;-50
2022/07/10 04:35:43;;;;;;;1.70;1.30;;;;;;;;;;4992935;28;20033;-46
2022/07/10 04:38:08;;;;;;;1.60;1.00;;;;;;;;;;4992493;28;20148;-45
2022/07/10 04:40:34;;;;;;;1.20;1.10;;;;;;;;;;4992765;28;20053;-48
2022/07/10 04:42:59;;;;;;;1.02;1.00;;;;;;;;;;4992465;28;20483;-50
2022/07/10 04:45:25;;;;;;;1.20;1.10;;;;;;;;;;4992415;28;20024;-45
2022/07/10 04:47:51;;;;;;;1.17;1.00;;;;;;;;;;4992569;28;20401;-51
2022/07/10 04:50:16;;;;;;;1.23;1.08;;;;;;;;;;4992708;28;20029;-52
2022/07/10 04:52:42;;;;;;;1.27;1.05;;;;;;;;;;4992121;28;20051;-54
2022/07/10 04:55:08;;;;;;;0.82;0.82;;;;;;;;;;4992205;28;20034;-54
2022/07/10 04:57:33;;;;;;;1.10;1.10;;;;;;;;;;4992219;28;20037;-45
2022/07/10 04:59:59;;;;;;;1.20;1.10;;;;;;;;;;4992374;28;20489;-46
2022/07/10 05:02:25;;;;;;;1.52;0.93;;;;;;;;;;4991745;28;20034;-49
2022/07/10 05:04:50;;;;;;;4.38;1.05;;;;;;;;;;4992355;28;20528;-45
2022/07/10 05:07:16;;;;;;;1.02;0.93;;;;;;;;;;4992070;28;20114;-48
2022/07/10 05:09:41;;;;;;;1.17;1.08;;;;;;;;;;4991990;28;20081;-49
2022/07/10 05:12:07;;;;;;;2.25;1.00;;;;;;;;;;4991959;28;20034;-49
2022/07/10 05:14:33;;;;;;;1.85;0.90;;;;;;;;;;4992126;28;20034;-46
2022/07/10 05:16:58;;;;;;;2.15;1.10;;;;;;;;;;4992111;28;20518;-45
2022/07/10 05:19:24;;;;;;;1.10;1.00;;;;;;;;;;4991999;28;20113;-50
2022/07/10 05:21:49;;;;;;;2.03;1.00;;;;;;;;;;4991730;28;20034;-53
2022/07/10 05:24:15;;;;;;;1.20;0.80;;;;;;;;;;4991890;28;20426;-48
2022/07/10 05:26:40;;;;;;;1.27;0.90;;;;;;;;;;4974409;28;20467;-44
2022/07/10 05:29:05;;;;;;;2.35;1.00;;;;;;;;;;4991967;28;20486;-44
2022/07/10 05:31:31;;;;;;;1.20;1.00;;;;;;;;;;4974399;28;20420;-48
2022/07/10 05:33:57;;;;;;;1.35;0.90;;;;;;;;;;4991905;28;20034;-46
2022/07/10 05:36:22;;;;;;;1.75;0.93;;;;;;;;;;4991795;28;20034;-44
2022/07/10 05:38:48;;;;;;;1.45;0.77;;;;;;;;;;4991856;28;20062;-48
2022/07/10 05:41:13;;;;;;;0.98;0.88;;;;;;;;;;4991598;28;20077;-46
2022/07/10 05:43:39;;;;;;;0.90;0.90;;;;;;;;;;4991737;28;20065;-46
2022/07/10 05:46:05;;;;;;;0.95;0.95;;;;;;;;;;4991526;28;20385;-46
2022/07/10 05:48:31;;;;;;;0.80;0.80;;;;;;;;;;4991485;28;20025;-50
2022/07/10 05:50:56;;;;;;;0.77;0.77;;;;;;;;;;4991583;28;20026;-48
2022/07/10 05:53:22;;;;;;;0.80;0.80;;;;;;;;;;4991294;28;20975;-54
2022/07/10 05:55:48;;;;;;;3.30;1.05;;;;;;;;;;4991776;28;20379;-47
2022/07/10 05:58:14;;;;;;;1.08;0.90;;;;;;;;;;4991466;28;20026;-48
2022/07/10 06:00:39;;;;;;;1.05;0.88;;;;;;;;;;4991643;28;20033;-49
2022/07/10 06:03:05;;;;;;;1.85;1.63;;;;;;;;;;4991652;28;20041;-49
2022/07/10 06:05:31;;;;;;;0.80;0.80;;;;;;;;;;4991580;28;20026;-52
2022/07/10 06:07:56;;;;;;;1.95;1.10;;;;;;;;;;4991558;28;20029;-52
2022/07/10 06:10:22;;;;;;;1.10;1.00;;;;;;;;;;4991152;28;20393;-52
2022/07/10 06:12:47;;;;;;;2.70;1.00;;;;;;;;;;4991487;28;20049;-50
2022/07/10 06:15:13;;;;;;;1.48;0.93;;;;;;;;;;4994788;28;20493;-47
2022/07/10 06:17:38;;;;;;;1.10;1.00;;;;;;;;;;4995217;28;20026;-47
2022/07/10 06:20:04;;;;;;;1.17;0.80;;;;;;;;;;4995381;28;20018;-49
2022/07/10 06:22:30;;;;;;;0.93;0.85;;;;;;;;;;4995084;28;20494;-47
2022/07/10 06:24:56;;;;;;;0.80;0.80;;;;;;;;;;4995023;28;20026;-48
2022/07/10 06:27:21;;;;;;;0.70;0.70;;;;;;;;;;4995205;28;20034;-49
2022/07/10 06:29:47;;;;;;;2.13;1.00;;;;;;;;;;4995075;28;20417;-55
2022/07/10 06:32:12;;;;;;;18.77;2.38;;;;;;;;;;4995025;28;20050;-54
2022/07/10 06:34:38;;;;;;;1.00;0.85;;;;;;;;;;4994925;28;20027;-46
2022/07/10 06:37:04;;;;;;;1.27;1.13;;;;;;;;;;4994824;28;20034;-52
2022/07/10 06:39:35;;;;;;;3.03;1.20;;;;;;;;;;4994863;28;20566;-47
2022/07/10 06:42:05;;;;;;;4.53;1.00;;;;;;;;;;4994899;28;20038;-50
2022/07/10 06:44:30;;;;;;;1.15;0.90;;;;;;;;;;4994900;28;20509;-54
2022/07/10 06:49:42;;;;;;;0.88;0.88;;;;;;;;;;4995132;28;20104;-51
2022/07/10 06:52:07;;;;;;;1.23;1.00;;;;;;;;;;4994422;28;20058;-46
2022/07/10 06:54:33;;;;;;;2.63;0.95;;;;;;;;;;4994474;28;20470;-47
2022/07/10 06:56:58;;;;;;;0.90;0.88;;;;;;;;;;4994780;28;20026;-54
2022/07/10 06:59:24;;;;;;;1.10;1.00;;;;;;;;;;4994554;28;20022;-54
2022/07/10 07:01:50;;;;;;;1.52;1.10;;;;;;;;;;4994378;28;20026;-52
2022/07/10 07:04:15;;;;;;;0.90;0.90;;;;;;;;;;4994265;28;20068;-48
2022/07/10 07:06:41;;;;;;;1.85;0.90;;;;;;;;;;4994363;28;20037;-54
2022/07/10 07:09:06;;;;;;;1.15;0.90;;;;;;;;;;4994171;28;20034;-49
2022/07/10 07:11:31;;;;;;;1.15;1.08;;;;;;;;;;4994369;28;20497;-55
2022/07/10 07:13:57;;;;;;;2.75;1.20;;;;;;;;;;4994224;28;20391;-47
2022/07/10 07:16:37;;;;;;;2.05;1.38;;;;;;;;;;4994310;28;20034;-51
2022/07/10 07:19:04;;;;;;;1.73;1.10;;;;;;;;;;4994129;28;20078;-54
2022/07/10 07:24:18;;;;;;;1.58;1.20;;;;;;;;;;4994342;28;20093;-48
2022/07/10 07:26:47;;;;;;;1.50;1.13;;;;;;;;;;4993109;28;20042;-46
2022/07/10 07:29:17;;;;;;;2.17;1.20;;;;;;;;;;4994132;28;20386;-50
2022/07/10 07:31:43;;;;;;;;;;;;;;;;;;4994419;28;20030;-52
2022/07/10 07:34:08;;;;;;;1.15;1.02;;;;;;;;;;4993590;28;19917;-52
2022/07/10 07:36:34;;;;;;;1.30;1.20;;;;;;;;;;4993591;28;20109;-51
2022/07/10 07:39:00;;;;;;;2.78;1.13;;;;;;;;;;4993687;28;20026;-45
2022/07/10 07:41:28;;;;;;;1.30;1.20;;;;;;;;;;4993826;28;20100;-49
2022/07/10 07:43:54;;;;;;;3.38;1.20;;;;;;;;;;4993686;28;20053;-52
2022/07/10 07:46:19;;;;;;;1.38;1.10;;;;;;;;;;4993781;28;20685;-53
2022/07/10 07:48:45;;;;;;;1.13;0.93;;;;;;;;;;4993542;28;20650;-56
2022/07/10 07:51:13;;;;;;;1.20;1.10;;;;;;;;;;4993620;28;20041;-48
2022/07/10 07:53:38;;;;;;;4.18;1.20;;;;;;;;;;4993242;28;20050;-48
2022/07/10 07:56:05;;;;;;;0.95;0.95;;;;;;;;;;4993474;28;20034;-49
2022/07/10 07:58:30;;;;;;;1.20;1.10;;;;;;;;;;4993544;28;20109;-47
2022/07/10 08:00:56;;;;;;;4.43;1.00;;;;;;;;;;4993380;28;20071;-51
2022/07/10 08:03:22;;;;;;;1.30;1.20;;;;;;;;;;4993417;28;20022;-48
2022/07/10 08:05:49;;;;;;;1.65;1.00;;;;;;;;;;4993163;28;20081;-47
2022/07/10 08:08:14;;;;;;;1.02;1.02;;;;;;;;;;4993150;28;20030;-48
2022/07/10 08:10:40;;;;;;;1.80;1.00;;;;;;;;;;4993024;28;20022;-54
2022/07/10 08:13:07;;;;;;;2.40;1.00;;;;;;;;;;4992964;28;20030;-52
2022/07/10 08:15:34;;;;;;;1.08;1.00;;;;;;;;;;4992927;28;20111;-54
2022/07/10 08:18:00;;;;;;;1.40;1.30;;;;;;;;;;4993305;28;20419;-48
2022/07/10 08:20:26;;;;;;;3.92;1.30;;;;;;;;;;4992786;28;20474;-48
2022/07/10 08:22:55;;;;;;;2.13;1.30;;;;;;;;;;4993170;28;20065;-50
2022/07/10 08:25:20;;;;;;;;;;;;;;;;;;4976244;28;20030;-52
2022/07/10 08:27:46;;;;;;;2.20;1.08;;;;;;;;;;4993080;28;20372;-43
2022/07/10 08:30:12;;;;;;;2.15;0.95;;;;;;;;;;4992740;28;20022;-50
2022/07/10 08:32:39;;;;;;;1.27;1.02;;;;;;;;;;4992614;28;20038;-44
2022/07/10 08:35:06;;;;;;;1.25;1.15;;;;;;;;;;4992938;28;20457;-45
2022/07/10 08:37:42;;;;;;;3.95;1.48;;;;;;;;;;4992939;28;20026;-47
2022/07/10 08:40:09;;;;;;;3.03;1.20;;;;;;;;;;4992832;28;20030;-46
2022/07/10 08:42:35;;;;;;;1.48;1.02;;;;;;;;;;4992679;28;20374;-45
2022/07/10 08:45:00;;;;;;;3.70;1.00;;;;;;;;;;4992637;28;20053;-43
2022/07/10 08:47:27;;;;;;;4.10;1.00;;;;;;;;;;4992555;28;20486;-43
2022/07/10 08:49:52;;;;;;;0.80;0.80;;;;;;;;;;4992797;28;20106;-49
2022/07/10 08:52:43;;;;;;;2.25;1.00;;;;;;;;;;4992039;28;20058;-51
2022/07/10 08:55:13;;;;;;;2.50;1.00;;;;;;;;;;4992478;28;20496;-52
2022/07/10 08:57:40;;;;;;;1.85;0.98;;;;;;;;;;4992302;28;20041;-46
2022/07/10 09:00:06;;;;;;;1.45;0.90;;;;;;;;;;4992535;28;20389;-45
2022/07/10 09:02:32;;;;;;;1.50;1.27;;;;;;;;;;4991903;28;20105;-48
2022/07/10 09:04:57;;;;;;;1.67;0.80;;;;;;;;;;4992088;28;20161;-49
2022/07/10 09:07:23;;;;;;;0.90;0.90;;;;;;;;;;4992071;28;20100;-49
2022/07/10 09:09:56;;;;;;;2.42;1.00;;;;;;;;;;4974455;28;20029;-45
2022/07/10 09:12:22;;;;;;;0.95;0.95;;;;;;;;;;4991945;28;20542;-48
2022/07/10 09:14:49;;;;;;;3.13;0.95;;;;;;;;;;4991559;28;20112;-47
2022/07/10 09:17:15;;;;;;;1.95;0.98;;;;;;;;;;4991797;28;20030;-43
2022/07/10 09:19:41;;;;;;;1.55;0.88;;;;;;;;;;4991791;28;20061;-49
2022/07/10 09:22:08;;;;;;;1.27;0.77;;;;;;;;;;4991720;28;20030;-51
2022/07/10 09:24:46;;;;;;;0.80;0.80;;;;;;;;;;4991873;28;20390;-44
2022/07/10 09:27:14;;;;;;;1.70;0.90;;;;;;;;;;4991702;28;20034;-45
2022/07/10 09:29:50;;;;;;;0.90;0.90;;;;;;;;;;4991329;28;20045;-44
2022/07/10 09:32:17;;;;;;;0.70;0.70;;;;;;;;;;4991797;28;20034;-43
2022/07/10 09:34:43;;;;;;;0.93;0.93;;;;;;;;;;4991643;28;20745;-49
2022/07/10 09:37:27;;;;;;;1.40;0.75;;;;;;;;;;4991653;28;20389;-47
2022/07/10 09:39:56;;;;;;;1.60;0.80;;;;;;;;;;4991956;28;20041;-47
2022/07/10 09:42:28;;;;;;;;;;;;;;;;;;4992031;28;20037;-49
2022/07/10 09:45:16;;;;;;;0.80;0.70;;;;;;;;;;4991524;28;19922;-52
2022/07/10 09:48:04;;;;;;;2.88;0.85;;;;;;;;;;4991370;28;20034;-49
2022/07/10 09:50:38;;;;;;;2.40;0.80;;;;;;;;;;4991945;28;20034;-47
2022/07/10 09:53:06;;;;;;;0.90;0.80;;;;;;;;;;4991172;28;20307;-46
2022/07/10 09:55:35;;;;;;;0.88;0.75;;;;;;;;;;4991546;28;20035;-49
2022/07/10 09:58:05;;;;;;;;;;;;;;;;;;4991795;28;20037;-49
2022/07/10 10:00:39;;;;;;;3.15;0.90;;;;;;;;;;4991438;28;20370;-49
2022/07/10 10:03:07;;;;;;;0.80;0.80;;;;;;;;;;4991397;28;20745;-45
2022/07/10 10:05:50;;;;;;;2.00;0.90;;;;;;;;;;4991653;28;20041;-48
2022/07/10 10:08:18;;;;;;;3.65;0.90;;;;;;;;;;4991515;28;20030;-48
2022/07/10 10:10:49;;;;;;;5.57;1.05;;;;;;;;;;4991199;28;20069;-51
2022/07/10 10:13:23;;;;;;;1.27;0.90;;;;;;;;;;4991045;28;20042;-49
2022/07/10 10:15:51;;;;;;;1.95;1.08;;;;;;;;;;4991388;28;20057;-51
2022/07/10 10:18:26;;;;;;;1.20;0.80;;;;;;;;;;4991223;28;20550;-48
2022/07/10 10:20:54;;;;;;;5.45;0.75;;;;;;;;;;4973624;28;20057;-49
2022/07/10 10:23:24;;;;;;;0.80;0.80;;;;;;;;;;4991260;28;20026;-49
2022/07/10 10:25:55;;;;;;;0.98;0.98;;;;;;;;;;4990639;28;20073;-48
2022/07/10 10:28:23;;;;;;;1.52;1.05;;;;;;;;;;4990624;28;20023;-49
2022/07/10 10:30:53;;;;;;;1.58;1.08;;;;;;;;;;4990472;28;20045;-46
2022/07/10 10:33:42;;;;;;;4.97;0.93;;;;;;;;;;4990911;28;20479;-49
2022/07/10 10:36:12;;;;;;;0.90;0.90;;;;;;;;;;4971694;28;20031;-48
2022/07/10 10:38:56;;;;;;;;;;;;;;;;;;4979794;28;20076;-54
2022/07/10 10:41:31;;;;;;;0.90;0.90;;;;;;;;;;4988420;28;19924;-45
2022/07/10 10:44:11;;;;;;;1.85;0.80;;;;;;;;;;4991331;28;20038;-47
2022/07/10 10:47:00;;;;;;;1.45;0.70;;;;;;;;;;4991152;28;20032;-51
2022/07/10 10:49:26;;;;;;;2.03;1.20;;;;;;;;;;4990961;28;20749;-51
2022/07/10 10:52:04;;;;;;;1.42;0.70;;;;;;;;;;4990647;28;20062;-55
2022/07/10 10:54:55;;;;;;;2.22;0.80;;;;;;;;;;4990999;28;20154;-54
2022/07/10 10:57:22;;;;;;;3.33;0.90;;;;;;;;;;4990659;28;20546;-51
2022/07/10 10:59:48;;;;;;;1.10;0.95;;;;;;;;;;4990996;28;20102;-52
2022/07/10 11:02:28;;;;;;;1.85;1.00;;;;;;;;;;4993822;28;20046;-53
2022/07/10 11:05:18;;;;;;;0.98;0.90;;;;;;;;;;4994450;28;20097;-48
2022/07/10 11:07:55;;;;;;;2.35;0.80;;;;;;;;;;4994176;28;20598;-54
2022/07/10 11:10:42;;;;;;;1.77;0.80;;;;;;;;;;4993336;28;20026;-50
2022/07/10 11:13:08;;;;;;;7.35;1.17;;;;;;;;;;4994049;28;20038;-52
2022/07/10 11:15:39;;;;;;;1.25;0.90;;;;;;;;;;4976722;28;20037;-50
2022/07/10 11:18:05;;;;;;;3.28;1.10;;;;;;;;;;4993941;28;20509;-48
2022/07/10 11:20:40;;;;;;;1.00;0.98;;;;;;;;;;4993982;28;20092;-44
2022/07/10 11:23:13;;;;;;;9.38;1.05;;;;;;;;;;4994112;28;20022;-46
2022/07/10 11:26:11;;;;;;;1.95;0.88;;;;;;;;;;4994157;28;20053;-50
2022/07/10 11:28:50;;;;;;;3.87;0.87;;;;;;;;;;4978799;28;20038;-42
2022/07/10 11:31:16;;;;;;;1.38;0.77;;;;;;;;;;4995686;28;20300;-45
2022/07/10 11:33:48;;;;;;;1.38;0.90;;;;;;;;;;4995512;28;20041;-45
2022/07/10 11:36:28;;;;;;;0.80;0.80;;;;;;;;;;4995754;28;20026;-49
2022/07/10 11:38:59;;;;;;;1.80;0.80;;;;;;;;;;4995592;28;20033;-51
2022/07/10 11:41:25;;;;;;;5.00;1.08;;;;;;;;;;4995198;28;20026;-51
2022/07/10 11:43:55;;;;;;;1.08;0.90;;;;;;;;;;4995278;28;20098;-46
2022/07/10 11:46:22;;;;;;;1.10;0.90;;;;;;;;;;4995131;28;20045;-43
2022/07/10 11:48:56;;;;;;;2.08;1.20;;;;;;;;;;4995104;28;20027;-41
2022/07/10 11:51:33;;;;;;;1.60;0.80;;;;;;;;;;4995120;28;20062;-40
2022/07/10 11:54:05;;;;;;;2.22;0.65;;;;;;;;;;4994606;28;20042;-43
2022/07/10 11:56:33;;;;;;;0.70;0.70;;;;;;;;;;4992664;28;20038;-42
2022/07/10 11:59:04;;;;;;;0.77;0.77;;;;;;;;;;4993109;28;20031;-44
2022/07/10 12:01:35;;;;;;;3.40;1.05;;;;;;;;;;4994012;28;20034;-46
2022/07/10 12:04:06;;;;;;;0.73;0.70;;;;;;;;;;4994936;28;20062;-44
2022/07/10 12:06:33;;;;;;;3.72;0.80;;;;;;;;;;4994473;28;20034;-50
2022/07/10 12:09:06;;;;;;;10.75;1.25;;;;;;;;;;4994502;28;20069;-42
2022/07/10 12:11:31;;;;;;;5.95;1.02;;;;;;;;;;4993323;28;20030;-51
2022/07/10 12:14:19;;;;;;;0.80;0.80;;;;;;;;;;4994806;28;20037;-52
2022/07/10 12:16:46;;;;;;;1.90;1.13;;;;;;;;;;4993714;28;20030;-51
2022/07/10 12:19:15;;;;;;;2.35;0.90;;;;;;;;;;4994916;28;20081;-48
2022/07/10 12:21:42;;;;;;;5.10;0.80;;;;;;;;;;4994519;28;20030;-50
2022/07/10 12:24:07;;;;;;;4.07;0.90;;;;;;;;;;4994526;28;20058;-53
2022/07/10 12:26:44;;;;;;;3.53;0.98;;;;;;;;;;4994530;28;20054;-47
2022/07/10 12:29:29;;;;;;;0.82;0.65;;;;;;;;;;4994471;28;20034;-51
2022/07/10 12:31:56;;;;;;;8.73;1.00;;;;;;;;;;4993964;28;20037;-44
2022/07/10 12:34:43;;;;;;;0.70;0.70;;;;;;;;;;4990736;28;20026;-49
2022/07/10 12:37:13;;;;;;;1.00;0.60;;;;;;;;;;4992831;28;20076;-49
2022/07/10 12:39:53;;;;;;;1.60;1.13;;;;;;;;;;4993366;28;20497;-48
2022/07/10 12:42:29;;;;;;;4.28;0.70;;;;;;;;;;4992922;28;20034;-47
2022/07/10 12:45:09;;;;;;;3.25;0.70;;;;;;;;;;4992311;28;20463;-49
2022/07/10 12:47:44;;;;;;;1.80;0.77;;;;;;;;;;4992768;28;20069;-51
2022/07/10 12:50:12;;;;;;;0.70;0.70;;;;;;;;;;4993219;28;20025;-46
2022/07/10 12:52:38;;;;;;;1.23;0.70;;;;;;;;;;4992213;28;20156;-46
2022/07/10 12:55:25;;;;;;;0.82;0.75;;;;;;;;;;4992470;28;20026;-42
2022/07/10 12:57:57;;;;;;;14.35;1.20;;;;;;;;;;4993562;28;20552;-46
2022/07/10 13:00:30;;;;;;;0.80;0.70;;;;;;;;;;4994149;28;20081;-41
2022/07/10 13:03:03;;;;;;;6.18;0.70;;;;;;;;;;4993769;28;20062;-43
2022/07/10 13:05:32;;;;;;;2.95;0.70;;;;;;;;;;4993871;28;20359;-49
2022/07/10 13:08:19;;;;;;;1.35;0.70;;;;;;;;;;4993736;28;20029;-50
2022/07/10 13:10:48;;;;;;;41.92;3.35;;;;;;;;;;4993664;28;20073;-52
2022/07/10 13:13:13;;;;;;;31.73;3.70;;;;;;;;;;4993800;28;20477;-42
2022/07/10 13:15:40;;;;;;;16.98;1.50;;;;;;;;;;4993443;28;20283;-48
2022/07/10 13:18:13;;;;;;;19.20;1.92;;;;;;;;;;4992800;28;20026;-47
2022/07/10 13:20:38;;;;;;;18.10;1.58;;;;;;;;;;4993504;28;20386;-47
2022/07/10 13:23:06;;;;;;;7.88;1.00;;;;;;;;;;4993133;28;20037;-46
2022/07/10 13:25:32;;;;;;;3.78;1.25;;;;;;;;;;4993472;28;20515;-47
2022/07/10 13:27:57;;;;;;;1.83;0.95;;;;;;;;;;4993655;28;20034;-45
2022/07/10 13:30:23;;;;;;;0.75;0.75;;;;;;;;;;4993332;28;20374;-44
2022/07/10 13:32:48;;;;;;;4.30;0.85;;;;;;;;;;4993253;28;20034;-47
2022/07/10 13:35:14;;;;;;;7.30;0.85;;;;;;;;;;4975952;28;20027;-44
2022/07/10 13:37:39;;;;;;;2.08;0.82;;;;;;;;;;4993449;28;20030;-48
2022/07/10 13:40:06;;;;;;;4.63;0.80;;;;;;;;;;4993470;28;20383;-46
2022/07/10 13:42:32;;;;;;;3.60;1.40;;;;;;;;;;4993226;28;20077;-47
2022/07/10 13:44:57;;;;;;;9.00;1.05;;;;;;;;;;4992897;28;20022;-47
2022/07/10 13:47:23;;;;;;;6.50;1.40;;;;;;;;;;4993048;28;20124;-43
2022/07/10 13:49:48;;;;;;;2.42;1.10;;;;;;;;;;4993189;28;20038;-46
2022/07/10 13:52:14;;;;;;;1.35;1.02;;;;;;;;;;4992924;28;20051;-42
2022/07/10 13:54:41;;;;;;;6.30;1.20;;;;;;;;;;4992854;28;20082;-47
2022/07/10 13:57:07;;;;;;;2.63;1.10;;;;;;;;;;4993240;28;20105;-42
2022/07/10 13:59:33;;;;;;;2.35;1.10;;;;;;;;;;4993249;28;20533;-45
2022/07/10 14:01:58;;;;;;;1.30;1.00;;;;;;;;;;4992990;28;20489;-47
2022/07/10 14:04:24;;;;;;;3.30;1.10;;;;;;;;;;4992975;28;20018;-42
2022/07/10 14:06:49;;;;;;;7.68;1.00;;;;;;;;;;4993230;28;20062;-48
2022/07/10 14:09:14;;;;;;;5.07;0.80;;;;;;;;;;4993506;28;20081;-46
2022/07/10 14:11:40;;;;;;;2.08;0.70;;;;;;;;;;4992878;28;20470;-45
2022/07/10 14:14:06;;;;;;;1.70;0.90;;;;;;;;;;4992854;28;20554;-45
2022/07/10 14:16:31;;;;;;;0.98;0.90;;;;;;;;;;4992918;28;20105;-47
2022/07/10 14:18:57;;;;;;;1.27;0.75;;;;;;;;;;4992877;28;20033;-46
2022/07/10 14:21:27;;;;;;;2.53;1.00;;;;;;;;;;4992790;28;20061;-52
2022/07/10 14:23:52;;;;;;;4.00;0.73;;;;;;;;;;4993305;28;20101;-48
2022/07/10 14:26:18;;;;;;;2.80;1.10;;;;;;;;;;4992812;28;20022;-49
2022/07/10 14:28:43;;;;;;;2.35;1.00;;;;;;;;;;4992779;28;20026;-48
2022/07/10 14:31:09;;;;;;;3.70;0.88;;;;;;;;;;4992565;28;20161;-50
2022/07/10 14:33:36;;;;;;;2.60;0.90;;;;;;;;;;4992942;28;20113;-47
2022/07/10 14:36:02;;;;;;;2.65;0.80;;;;;;;;;;4995767;28;20035;-44
2022/07/10 14:38:28;;;;;;;4.10;1.10;;;;;;;;;;4996749;28;20031;-49
2022/07/10 14:40:55;;;;;;;3.15;1.00;;;;;;;;;;4996695;28;20038;-42
2022/07/10 14:43:20;;;;;;;2.88;0.90;;;;;;;;;;4996350;28;20030;-45
2022/07/10 14:45:46;;;;;;;0.90;0.90;;;;;;;;;;4996398;28;20026;-48
2022/07/10 14:48:12;;;;;;;2.47;0.82;;;;;;;;;;4996308;28;20054;-45
2022/07/10 14:50:39;;;;;;;2.28;0.80;;;;;;;;;;4996285;28;20068;-47
2022/07/10 14:53:05;;;;;;;5.43;0.77;;;;;;;;;;4995888;28;20057;-46
2022/07/10 14:55:31;;;;;;;9.25;1.02;;;;;;;;;;4996416;28;20042;-48